sensor_id;sensor_type;location;lat;lon;timestamp;P1;durP1;ratioP1;P2;durP2;ratioP2
38513;SDS011;24282;48.400;10.808;2023-08-24T00:02:06;3.80;;;2.50;;
38513;SDS011;24282;48.400;10.808;2023-08-24T00:04:32;2.75;;;2.20;;
38513;SDS011;24282;48.400;10.808;2023-08-24T00:06:59;4.18;;;2.40;;
38513;SDS011;24282;48.400;10.808;2023-08-24T00:09:25;3.20;;;2.33;;
38513;SDS011;24282;48.400;10.808;2023-08-24T00:11:51;3.08;;;2.42;;
38513;SDS011;24282;48.400;10.808;2023-08-24T00:14:18;3.20;;;2.10;;
38513;SDS011;24282;48.400;10.808;2023-08-24T00:16:43;2.75;;;2.35;;
38513;SDS011;24282;48.400;10.808;2023-08-24T00:19:09;4.43;;;2.53;;
38513;SDS011;24282;48.400;10.808;2023-08-24T00:21:35;4.13;;;2.20;;
38513;SDS011;24282;48.400;10.808;2023-08-24T00:24:00;3.80;;;2.40;;
38513;SDS011;24282;48.400;10.808;2023-08-24T00:26:29;4.18;;;2.55;;
38513;SDS011;24282;48.400;10.808;2023-08-24T00:29:01;4.28;;;2.40;;
38513;SDS011;24282;48.400;10.808;2023-08-24T00:31:27;2.55;;;2.25;;
38513;SDS011;24282;48.400;10.808;2023-08-24T00:33:52;3.45;;;2.30;;
38513;SDS011;24282;48.400;10.808;2023-08-24T00:36:18;3.60;;;2.60;;
38513;SDS011;24282;48.400;10.808;2023-08-24T00:38:45;3.30;;;2.50;;
38513;SDS011;24282;48.400;10.808;2023-08-24T00:41:16;2.70;;;2.28;;
38513;SDS011;24282;48.400;10.808;2023-08-24T00:43:41;3.47;;;2.30;;
38513;SDS011;24282;48.400;10.808;2023-08-24T00:46:07;4.40;;;2.50;;
38513;SDS011;24282;48.400;10.808;2023-08-24T00:48:33;3.08;;;2.40;;
38513;SDS011;24282;48.400;10.808;2023-08-24T00:50:59;3.20;;;2.47;;
38513;SDS011;24282;48.400;10.808;2023-08-24T00:53:26;3.30;;;2.33;;
38513;SDS011;24282;48.400;10.808;2023-08-24T00:55:53;3.03;;;2.30;;
38513;SDS011;24282;48.400;10.808;2023-08-24T00:58:20;5.22;;;2.25;;
38513;SDS011;24282;48.400;10.808;2023-08-24T01:00:46;3.58;;;2.40;;
38513;SDS011;24282;48.400;10.808;2023-08-24T01:03:14;2.83;;;2.08;;
38513;SDS011;24282;48.400;10.808;2023-08-24T01:05:42;3.40;;;2.33;;
38513;SDS011;24282;48.400;10.808;2023-08-24T01:08:09;3.53;;;2.17;;
38513;SDS011;24282;48.400;10.808;2023-08-24T01:13:32;3.15;;;2.15;;
38513;SDS011;24282;48.400;10.808;2023-08-24T01:16:10;3.70;;;2.47;;
38513;SDS011;24282;48.400;10.808;2023-08-24T01:18:46;3.60;;;2.10;;
38513;SDS011;24282;48.400;10.808;2023-08-24T01:21:13;4.68;;;2.50;;
38513;SDS011;24282;48.400;10.808;2023-08-24T01:26:36;2.75;;;2.10;;
38513;SDS011;24282;48.400;10.808;2023-08-24T01:29:02;4.28;;;2.22;;
38513;SDS011;24282;48.400;10.808;2023-08-24T01:31:30;3.65;;;2.47;;
38513;SDS011;24282;48.400;10.808;2023-08-24T01:33:56;3.35;;;2.15;;
38513;SDS011;24282;48.400;10.808;2023-08-24T01:36:22;3.42;;;2.40;;
38513;SDS011;24282;48.400;10.808;2023-08-24T01:39:05;2.55;;;2.20;;
38513;SDS011;24282;48.400;10.808;2023-08-24T01:41:37;4.10;;;2.25;;
38513;SDS011;24282;48.400;10.808;2023-08-24T01:44:04;2.70;;;2.30;;
38513;SDS011;24282;48.400;10.808;2023-08-24T01:46:33;2.42;;;2.00;;
38513;SDS011;24282;48.400;10.808;2023-08-24T01:49:01;3.08;;;2.25;;
38513;SDS011;24282;48.400;10.808;2023-08-24T01:51:29;2.65;;;2.00;;
38513;SDS011;24282;48.400;10.808;2023-08-24T01:53:55;3.50;;;2.33;;
38513;SDS011;24282;48.400;10.808;2023-08-24T01:56:23;3.92;;;2.40;;
38513;SDS011;24282;48.400;10.808;2023-08-24T01:58:49;4.68;;;2.42;;
38513;SDS011;24282;48.400;10.808;2023-08-24T02:01:15;4.00;;;2.40;;
38513;SDS011;24282;48.400;10.808;2023-08-24T02:03:42;2.97;;;2.50;;
38513;SDS011;24282;48.400;10.808;2023-08-24T02:06:08;2.70;;;2.13;;
38513;SDS011;24282;48.400;10.808;2023-08-24T02:08:34;3.00;;;2.28;;
38513;SDS011;24282;48.400;10.808;2023-08-24T02:11:02;3.88;;;2.40;;
38513;SDS011;24282;48.400;10.808;2023-08-24T02:13:27;2.80;;;2.35;;
38513;SDS011;24282;48.400;10.808;2023-08-24T02:16:03;2.75;;;2.10;;
38513;SDS011;24282;48.400;10.808;2023-08-24T02:18:37;2.30;;;2.10;;
38513;SDS011;24282;48.400;10.808;2023-08-24T02:21:07;3.60;;;2.40;;
38513;SDS011;24282;48.400;10.808;2023-08-24T02:23:33;2.65;;;2.20;;
38513;SDS011;24282;48.400;10.808;2023-08-24T02:25:59;2.55;;;2.15;;
38513;SDS011;24282;48.400;10.808;2023-08-24T02:28:25;4.10;;;2.25;;
38513;SDS011;24282;48.400;10.808;2023-08-24T02:30:51;2.65;;;2.13;;
38513;SDS011;24282;48.400;10.808;2023-08-24T02:33:16;2.97;;;2.10;;
38513;SDS011;24282;48.400;10.808;2023-08-24T02:35:42;2.85;;;2.30;;
38513;SDS011;24282;48.400;10.808;2023-08-24T02:38:09;3.90;;;2.75;;
38513;SDS011;24282;48.400;10.808;2023-08-24T02:40:35;2.72;;;2.20;;
38513;SDS011;24282;48.400;10.808;2023-08-24T02:43:01;3.80;;;2.75;;
38513;SDS011;24282;48.400;10.808;2023-08-24T02:45:27;4.30;;;2.60;;
38513;SDS011;24282;48.400;10.808;2023-08-24T02:47:53;6.40;;;2.53;;
38513;SDS011;24282;48.400;10.808;2023-08-24T02:50:18;4.63;;;2.40;;
38513;SDS011;24282;48.400;10.808;2023-08-24T02:52:44;2.33;;;2.08;;
38513;SDS011;24282;48.400;10.808;2023-08-24T02:55:11;3.05;;;2.25;;
38513;SDS011;24282;48.400;10.808;2023-08-24T02:57:36;4.03;;;3.10;;
38513;SDS011;24282;48.400;10.808;2023-08-24T03:00:03;3.13;;;2.63;;
38513;SDS011;24282;48.400;10.808;2023-08-24T03:02:31;3.85;;;2.80;;
38513;SDS011;24282;48.400;10.808;2023-08-24T03:04:57;3.30;;;2.60;;
38513;SDS011;24282;48.400;10.808;2023-08-24T03:07:23;2.95;;;2.55;;
38513;SDS011;24282;48.400;10.808;2023-08-24T03:09:49;3.97;;;2.70;;
38513;SDS011;24282;48.400;10.808;2023-08-24T03:12:14;3.30;;;2.58;;
38513;SDS011;24282;48.400;10.808;2023-08-24T03:14:40;4.07;;;3.10;;
38513;SDS011;24282;48.400;10.808;2023-08-24T03:17:07;3.08;;;2.40;;
38513;SDS011;24282;48.400;10.808;2023-08-24T03:19:33;4.57;;;2.83;;
38513;SDS011;24282;48.400;10.808;2023-08-24T03:21:59;3.40;;;2.47;;
38513;SDS011;24282;48.400;10.808;2023-08-24T03:24:25;2.80;;;2.25;;
38513;SDS011;24282;48.400;10.808;2023-08-24T03:26:52;4.10;;;2.78;;
38513;SDS011;24282;48.400;10.808;2023-08-24T03:29:19;5.53;;;3.25;;
38513;SDS011;24282;48.400;10.808;2023-08-24T03:31:45;2.80;;;2.20;;
38513;SDS011;24282;48.400;10.808;2023-08-24T03:34:11;3.90;;;2.92;;
38513;SDS011;24282;48.400;10.808;2023-08-24T03:36:36;3.13;;;2.42;;
38513;SDS011;24282;48.400;10.808;2023-08-24T03:39:03;3.75;;;2.67;;
38513;SDS011;24282;48.400;10.808;2023-08-24T03:41:29;2.97;;;2.55;;
38513;SDS011;24282;48.400;10.808;2023-08-24T03:43:57;3.95;;;2.45;;
38513;SDS011;24282;48.400;10.808;2023-08-24T03:46:22;3.35;;;2.72;;
38513;SDS011;24282;48.400;10.808;2023-08-24T03:48:48;3.47;;;2.88;;
38513;SDS011;24282;48.400;10.808;2023-08-24T03:51:14;4.30;;;2.85;;
38513;SDS011;24282;48.400;10.808;2023-08-24T03:53:39;5.82;;;3.25;;
38513;SDS011;24282;48.400;10.808;2023-08-24T03:56:06;6.55;;;3.10;;
38513;SDS011;24282;48.400;10.808;2023-08-24T03:58:32;4.22;;;3.20;;
38513;SDS011;24282;48.400;10.808;2023-08-24T04:00:58;3.42;;;2.70;;
38513;SDS011;24282;48.400;10.808;2023-08-24T04:03:24;3.33;;;2.80;;
38513;SDS011;24282;48.400;10.808;2023-08-24T04:05:50;4.20;;;2.92;;
38513;SDS011;24282;48.400;10.808;2023-08-24T04:08:16;3.22;;;2.72;;
38513;SDS011;24282;48.400;10.808;2023-08-24T04:10:43;3.72;;;3.08;;
38513;SDS011;24282;48.400;10.808;2023-08-24T04:13:08;4.45;;;2.85;;
38513;SDS011;24282;48.400;10.808;2023-08-24T04:15:35;5.95;;;2.92;;
38513;SDS011;24282;48.400;10.808;2023-08-24T04:18:01;4.50;;;2.72;;
38513;SDS011;24282;48.400;10.808;2023-08-24T04:20:27;4.75;;;3.03;;
38513;SDS011;24282;48.400;10.808;2023-08-24T04:22:54;4.00;;;3.40;;
38513;SDS011;24282;48.400;10.808;2023-08-24T04:25:20;4.55;;;3.10;;
38513;SDS011;24282;48.400;10.808;2023-08-24T04:28:06;3.65;;;2.75;;
38513;SDS011;24282;48.400;10.808;2023-08-24T04:30:31;4.13;;;3.40;;
38513;SDS011;24282;48.400;10.808;2023-08-24T04:32:58;4.53;;;3.15;;
38513;SDS011;24282;48.400;10.808;2023-08-24T04:35:25;5.72;;;3.03;;
38513;SDS011;24282;48.400;10.808;2023-08-24T04:37:52;4.90;;;3.58;;
38513;SDS011;24282;48.400;10.808;2023-08-24T04:40:17;4.35;;;3.05;;
38513;SDS011;24282;48.400;10.808;2023-08-24T04:42:43;5.18;;;3.28;;
38513;SDS011;24282;48.400;10.808;2023-08-24T04:45:09;4.00;;;3.15;;
38513;SDS011;24282;48.400;10.808;2023-08-24T04:47:34;6.00;;;3.10;;
38513;SDS011;24282;48.400;10.808;2023-08-24T04:50:00;3.95;;;2.88;;
38513;SDS011;24282;48.400;10.808;2023-08-24T04:52:26;4.53;;;2.97;;
38513;SDS011;24282;48.400;10.808;2023-08-24T04:54:51;3.50;;;2.80;;
38513;SDS011;24282;48.400;10.808;2023-08-24T04:57:17;5.70;;;3.03;;
38513;SDS011;24282;48.400;10.808;2023-08-24T04:59:43;4.47;;;2.50;;
38513;SDS011;24282;48.400;10.808;2023-08-24T05:02:09;4.03;;;3.00;;
38513;SDS011;24282;48.400;10.808;2023-08-24T05:04:35;6.10;;;3.20;;
38513;SDS011;24282;48.400;10.808;2023-08-24T05:07:00;3.70;;;2.70;;
38513;SDS011;24282;48.400;10.808;2023-08-24T05:09:26;3.58;;;3.05;;
38513;SDS011;24282;48.400;10.808;2023-08-24T05:11:52;4.13;;;3.38;;
38513;SDS011;24282;48.400;10.808;2023-08-24T05:14:17;3.13;;;2.70;;
38513;SDS011;24282;48.400;10.808;2023-08-24T05:16:43;4.15;;;2.97;;
38513;SDS011;24282;48.400;10.808;2023-08-24T05:19:09;4.05;;;3.17;;
38513;SDS011;24282;48.400;10.808;2023-08-24T05:21:34;3.60;;;2.90;;
38513;SDS011;24282;48.400;10.808;2023-08-24T05:24:00;3.67;;;3.10;;
38513;SDS011;24282;48.400;10.808;2023-08-24T05:31:24;4.25;;;3.42;;
38513;SDS011;24282;48.400;10.808;2023-08-24T05:33:50;3.88;;;3.47;;
38513;SDS011;24282;48.400;10.808;2023-08-24T05:36:16;5.63;;;3.65;;
38513;SDS011;24282;48.400;10.808;2023-08-24T05:38:41;4.38;;;3.83;;
38513;SDS011;24282;48.400;10.808;2023-08-24T05:41:12;4.90;;;3.50;;
38513;SDS011;24282;48.400;10.808;2023-08-24T05:43:37;4.88;;;3.60;;
38513;SDS011;24282;48.400;10.808;2023-08-24T05:46:03;5.55;;;4.38;;
38513;SDS011;24282;48.400;10.808;2023-08-24T05:48:29;6.22;;;3.63;;
38513;SDS011;24282;48.400;10.808;2023-08-24T05:50:54;4.70;;;3.67;;
38513;SDS011;24282;48.400;10.808;2023-08-24T05:53:20;4.00;;;3.60;;
38513;SDS011;24282;48.400;10.808;2023-08-24T05:55:46;4.28;;;3.80;;
38513;SDS011;24282;48.400;10.808;2023-08-24T05:58:12;4.68;;;3.58;;
38513;SDS011;24282;48.400;10.808;2023-08-24T06:00:38;5.53;;;4.00;;
38513;SDS011;24282;48.400;10.808;2023-08-24T06:03:04;3.95;;;3.47;;
38513;SDS011;24282;48.400;10.808;2023-08-24T06:05:30;5.07;;;3.90;;
38513;SDS011;24282;48.400;10.808;2023-08-24T06:07:56;4.57;;;4.10;;
38513;SDS011;24282;48.400;10.808;2023-08-24T06:10:22;5.60;;;4.07;;
38513;SDS011;24282;48.400;10.808;2023-08-24T06:12:49;5.55;;;4.80;;
38513;SDS011;24282;48.400;10.808;2023-08-24T06:15:15;4.63;;;3.80;;
38513;SDS011;24282;48.400;10.808;2023-08-24T06:17:41;4.82;;;3.72;;
38513;SDS011;24282;48.400;10.808;2023-08-24T06:20:07;5.05;;;3.97;;
38513;SDS011;24282;48.400;10.808;2023-08-24T06:22:35;5.05;;;3.97;;
38513;SDS011;24282;48.400;10.808;2023-08-24T06:25:01;4.75;;;4.10;;
38513;SDS011;24282;48.400;10.808;2023-08-24T06:27:26;5.43;;;4.07;;
38513;SDS011;24282;48.400;10.808;2023-08-24T06:29:52;4.38;;;3.95;;
38513;SDS011;24282;48.400;10.808;2023-08-24T06:32:18;5.18;;;4.28;;
38513;SDS011;24282;48.400;10.808;2023-08-24T06:34:44;5.07;;;3.90;;
38513;SDS011;24282;48.400;10.808;2023-08-24T06:37:09;5.25;;;4.18;;
38513;SDS011;24282;48.400;10.808;2023-08-24T06:39:35;5.95;;;5.00;;
38513;SDS011;24282;48.400;10.808;2023-08-24T06:42:01;6.13;;;4.15;;
38513;SDS011;24282;48.400;10.808;2023-08-24T06:44:29;4.25;;;3.80;;
38513;SDS011;24282;48.400;10.808;2023-08-24T06:46:55;6.60;;;4.93;;
38513;SDS011;24282;48.400;10.808;2023-08-24T06:49:21;5.68;;;4.32;;
38513;SDS011;24282;48.400;10.808;2023-08-24T06:51:47;5.95;;;4.25;;
38513;SDS011;24282;48.400;10.808;2023-08-24T06:54:12;4.45;;;4.05;;
38513;SDS011;24282;48.400;10.808;2023-08-24T06:56:39;4.90;;;3.78;;
38513;SDS011;24282;48.400;10.808;2023-08-24T06:59:05;4.47;;;3.65;;
38513;SDS011;24282;48.400;10.808;2023-08-24T07:01:31;5.68;;;4.38;;
38513;SDS011;24282;48.400;10.808;2023-08-24T07:03:57;5.05;;;4.20;;
38513;SDS011;24282;48.400;10.808;2023-08-24T07:06:23;5.47;;;4.40;;
38513;SDS011;24282;48.400;10.808;2023-08-24T07:08:49;5.53;;;4.00;;
38513;SDS011;24282;48.400;10.808;2023-08-24T07:11:15;5.55;;;3.78;;
38513;SDS011;24282;48.400;10.808;2023-08-24T07:13:42;5.65;;;3.92;;
38513;SDS011;24282;48.400;10.808;2023-08-24T07:16:08;5.38;;;4.15;;
38513;SDS011;24282;48.400;10.808;2023-08-24T07:18:34;5.40;;;3.58;;
38513;SDS011;24282;48.400;10.808;2023-08-24T07:20:59;4.65;;;3.65;;
38513;SDS011;24282;48.400;10.808;2023-08-24T07:23:25;4.65;;;3.33;;
38513;SDS011;24282;48.400;10.808;2023-08-24T07:25:51;4.70;;;3.17;;
38513;SDS011;24282;48.400;10.808;2023-08-24T07:28:16;5.32;;;3.35;;
38513;SDS011;24282;48.400;10.808;2023-08-24T07:30:42;4.15;;;3.10;;
38513;SDS011;24282;48.400;10.808;2023-08-24T07:33:08;5.05;;;3.38;;
38513;SDS011;24282;48.400;10.808;2023-08-24T07:35:34;3.88;;;2.95;;
38513;SDS011;24282;48.400;10.808;2023-08-24T07:38:00;4.72;;;3.38;;
38513;SDS011;24282;48.400;10.808;2023-08-24T07:40:26;6.07;;;3.08;;
38513;SDS011;24282;48.400;10.808;2023-08-24T07:42:52;3.90;;;2.63;;
38513;SDS011;24282;48.400;10.808;2023-08-24T07:45:21;3.88;;;3.20;;
38513;SDS011;24282;48.400;10.808;2023-08-24T07:47:48;4.25;;;3.20;;
38513;SDS011;24282;48.400;10.808;2023-08-24T07:50:14;3.70;;;3.00;;
38513;SDS011;24282;48.400;10.808;2023-08-24T07:52:40;5.55;;;3.20;;
38513;SDS011;24282;48.400;10.808;2023-08-24T07:55:06;3.83;;;3.42;;
38513;SDS011;24282;48.400;10.808;2023-08-24T07:57:36;4.70;;;3.45;;
38513;SDS011;24282;48.400;10.808;2023-08-24T08:00:05;4.43;;;3.50;;
38513;SDS011;24282;48.400;10.808;2023-08-24T08:02:39;4.00;;;3.20;;
38513;SDS011;24282;48.400;10.808;2023-08-24T08:05:05;4.78;;;3.50;;
38513;SDS011;24282;48.400;10.808;2023-08-24T08:07:37;4.72;;;3.60;;
38513;SDS011;24282;48.400;10.808;2023-08-24T08:10:04;3.80;;;3.40;;
38513;SDS011;24282;48.400;10.808;2023-08-24T08:12:30;5.38;;;3.72;;
38513;SDS011;24282;48.400;10.808;2023-08-24T08:14:57;4.78;;;3.60;;
38513;SDS011;24282;48.400;10.808;2023-08-24T08:17:23;3.53;;;3.20;;
38513;SDS011;24282;48.400;10.808;2023-08-24T08:19:53;5.00;;;3.67;;
38513;SDS011;24282;48.400;10.808;2023-08-24T08:22:20;4.20;;;3.70;;
38513;SDS011;24282;48.400;10.808;2023-08-24T08:24:46;4.82;;;3.67;;
38513;SDS011;24282;48.400;10.808;2023-08-24T08:27:11;6.93;;;3.95;;
38513;SDS011;24282;48.400;10.808;2023-08-24T08:29:37;5.88;;;4.30;;
38513;SDS011;24282;48.400;10.808;2023-08-24T08:32:03;4.80;;;3.83;;
38513;SDS011;24282;48.400;10.808;2023-08-24T08:34:30;4.75;;;3.63;;
38513;SDS011;24282;48.400;10.808;2023-08-24T08:36:56;4.25;;;3.47;;
38513;SDS011;24282;48.400;10.808;2023-08-24T08:39:22;4.15;;;3.10;;
38513;SDS011;24282;48.400;10.808;2023-08-24T08:41:48;4.15;;;3.22;;
38513;SDS011;24282;48.400;10.808;2023-08-24T08:44:14;5.43;;;3.20;;
38513;SDS011;24282;48.400;10.808;2023-08-24T08:46:41;4.68;;;3.88;;
38513;SDS011;24282;48.400;10.808;2023-08-24T08:49:08;3.95;;;3.30;;
38513;SDS011;24282;48.400;10.808;2023-08-24T08:51:37;4.50;;;3.50;;
38513;SDS011;24282;48.400;10.808;2023-08-24T08:54:04;4.70;;;3.58;;
38513;SDS011;24282;48.400;10.808;2023-08-24T08:56:30;5.50;;;3.30;;
38513;SDS011;24282;48.400;10.808;2023-08-24T08:58:57;5.43;;;3.53;;
38513;SDS011;24282;48.400;10.808;2023-08-24T09:01:25;3.50;;;3.10;;
38513;SDS011;24282;48.400;10.808;2023-08-24T09:03:52;4.47;;;3.53;;
38513;SDS011;24282;48.400;10.808;2023-08-24T09:06:19;5.28;;;3.47;;
38513;SDS011;24282;48.400;10.808;2023-08-24T09:08:46;4.18;;;3.33;;
38513;SDS011;24282;48.400;10.808;2023-08-24T09:11:12;5.90;;;3.50;;
38513;SDS011;24282;48.400;10.808;2023-08-24T09:13:40;3.92;;;3.40;;
38513;SDS011;24282;48.400;10.808;2023-08-24T09:16:06;5.03;;;4.18;;
38513;SDS011;24282;48.400;10.808;2023-08-24T09:18:34;4.28;;;3.88;;
38513;SDS011;24282;48.400;10.808;2023-08-24T09:21:08;5.40;;;3.67;;
38513;SDS011;24282;48.400;10.808;2023-08-24T09:23:38;4.22;;;3.50;;
38513;SDS011;24282;48.400;10.808;2023-08-24T09:28:57;4.97;;;4.13;;
38513;SDS011;24282;48.400;10.808;2023-08-24T09:31:23;5.03;;;3.45;;
38513;SDS011;24282;48.400;10.808;2023-08-24T09:34:00;3.88;;;3.47;;
38513;SDS011;24282;48.400;10.808;2023-08-24T09:36:26;4.10;;;3.47;;
38513;SDS011;24282;48.400;10.808;2023-08-24T09:38:52;4.80;;;3.45;;
38513;SDS011;24282;48.400;10.808;2023-08-24T09:41:20;4.53;;;3.55;;
38513;SDS011;24282;48.400;10.808;2023-08-24T09:43:46;3.55;;;3.08;;
38513;SDS011;24282;48.400;10.808;2023-08-24T09:46:12;3.88;;;3.30;;
38513;SDS011;24282;48.400;10.808;2023-08-24T09:48:52;4.72;;;3.33;;
38513;SDS011;24282;48.400;10.808;2023-08-24T09:51:18;5.47;;;3.70;;
38513;SDS011;24282;48.400;10.808;2023-08-24T09:53:45;4.35;;;3.28;;
38513;SDS011;24282;48.400;10.808;2023-08-24T09:56:11;3.83;;;3.17;;
38513;SDS011;24282;48.400;10.808;2023-08-24T09:58:41;4.38;;;3.55;;
38513;SDS011;24282;48.400;10.808;2023-08-24T10:01:08;5.00;;;3.97;;
38513;SDS011;24282;48.400;10.808;2023-08-24T10:03:34;4.20;;;3.60;;
38513;SDS011;24282;48.400;10.808;2023-08-24T10:06:05;4.90;;;3.28;;
38513;SDS011;24282;48.400;10.808;2023-08-24T10:08:35;5.10;;;3.65;;
38513;SDS011;24282;48.400;10.808;2023-08-24T10:11:05;4.28;;;3.05;;
38513;SDS011;24282;48.400;10.808;2023-08-24T10:16:24;4.05;;;3.25;;
38513;SDS011;24282;48.400;10.808;2023-08-24T10:18:52;3.83;;;3.00;;
38513;SDS011;24282;48.400;10.808;2023-08-24T10:21:18;4.00;;;3.10;;
38513;SDS011;24282;48.400;10.808;2023-08-24T10:23:45;4.18;;;3.15;;
38513;SDS011;24282;48.400;10.808;2023-08-24T10:26:11;3.78;;;3.15;;
38513;SDS011;24282;48.400;10.808;2023-08-24T10:28:38;3.30;;;2.80;;
38513;SDS011;24282;48.400;10.808;2023-08-24T10:31:04;3.35;;;2.92;;
38513;SDS011;24282;48.400;10.808;2023-08-24T10:33:31;3.28;;;2.83;;
38513;SDS011;24282;48.400;10.808;2023-08-24T10:35:59;3.10;;;2.80;;
38513;SDS011;24282;48.400;10.808;2023-08-24T10:38:29;3.50;;;3.00;;
38513;SDS011;24282;48.400;10.808;2023-08-24T10:41:01;3.67;;;2.72;;
38513;SDS011;24282;48.400;10.808;2023-08-24T10:43:36;3.00;;;2.70;;
38513;SDS011;24282;48.400;10.808;2023-08-24T10:46:03;3.42;;;2.67;;
38513;SDS011;24282;48.400;10.808;2023-08-24T10:48:29;3.63;;;2.97;;
38513;SDS011;24282;48.400;10.808;2023-08-24T10:51:19;3.50;;;2.65;;
38513;SDS011;24282;48.400;10.808;2023-08-24T10:56:17;4.25;;;2.78;;
38513;SDS011;24282;48.400;10.808;2023-08-24T10:58:43;2.72;;;2.35;;
38513;SDS011;24282;48.400;10.808;2023-08-24T11:03:51;3.75;;;2.35;;
38513;SDS011;24282;48.400;10.808;2023-08-24T11:06:21;3.15;;;2.17;;
38513;SDS011;24282;48.400;10.808;2023-08-24T11:08:48;3.35;;;2.40;;
38513;SDS011;24282;48.400;10.808;2023-08-24T11:11:23;3.47;;;2.60;;
38513;SDS011;24282;48.400;10.808;2023-08-24T11:16:40;4.10;;;2.50;;
38513;SDS011;24282;48.400;10.808;2023-08-24T11:19:10;3.35;;;2.10;;
38513;SDS011;24282;48.400;10.808;2023-08-24T11:21:40;2.95;;;2.25;;
38513;SDS011;24282;48.400;10.808;2023-08-24T11:24:07;3.42;;;2.50;;
38513;SDS011;24282;48.400;10.808;2023-08-24T11:26:47;3.45;;;2.38;;
38513;SDS011;24282;48.400;10.808;2023-08-24T11:29:17;2.90;;;2.28;;
38513;SDS011;24282;48.400;10.808;2023-08-24T11:31:49;2.97;;;1.95;;
38513;SDS011;24282;48.400;10.808;2023-08-24T11:34:17;2.75;;;2.15;;
38513;SDS011;24282;48.400;10.808;2023-08-24T11:36:43;4.10;;;2.38;;
38513;SDS011;24282;48.400;10.808;2023-08-24T11:39:16;3.67;;;2.17;;
38513;SDS011;24282;48.400;10.808;2023-08-24T11:42:04;5.55;;;2.28;;
38513;SDS011;24282;48.400;10.808;2023-08-24T11:47:26;3.88;;;2.15;;
38513;SDS011;24282;48.400;10.808;2023-08-24T11:49:51;3.63;;;2.17;;
38513;SDS011;24282;48.400;10.808;2023-08-24T11:52:17;2.78;;;1.88;;
38513;SDS011;24282;48.400;10.808;2023-08-24T11:54:43;2.42;;;1.67;;
38513;SDS011;24282;48.400;10.808;2023-08-24T11:57:09;2.58;;;1.75;;
38513;SDS011;24282;48.400;10.808;2023-08-24T11:59:36;3.88;;;2.10;;
38513;SDS011;24282;48.400;10.808;2023-08-24T12:02:03;2.33;;;1.77;;
38513;SDS011;24282;48.400;10.808;2023-08-24T12:04:42;2.42;;;1.90;;
38513;SDS011;24282;48.400;10.808;2023-08-24T12:07:12;2.47;;;1.90;;
38513;SDS011;24282;48.400;10.808;2023-08-24T12:09:38;3.20;;;2.10;;
38513;SDS011;24282;48.400;10.808;2023-08-24T12:12:05;3.42;;;2.10;;
38513;SDS011;24282;48.400;10.808;2023-08-24T12:14:46;3.85;;;2.10;;
38513;SDS011;24282;48.400;10.808;2023-08-24T12:17:13;3.05;;;1.83;;
38513;SDS011;24282;48.400;10.808;2023-08-24T12:19:43;3.00;;;2.10;;
38513;SDS011;24282;48.400;10.808;2023-08-24T12:22:13;5.47;;;2.10;;
38513;SDS011;24282;48.400;10.808;2023-08-24T12:24:43;4.15;;;2.40;;
38513;SDS011;24282;48.400;10.808;2023-08-24T12:29:48;2.33;;;1.88;;
38513;SDS011;24282;48.400;10.808;2023-08-24T12:32:14;2.60;;;2.00;;
38513;SDS011;24282;48.400;10.808;2023-08-24T12:34:41;3.20;;;1.75;;
38513;SDS011;24282;48.400;10.808;2023-08-24T12:37:10;3.22;;;1.85;;
38513;SDS011;24282;48.400;10.808;2023-08-24T12:39:36;4.57;;;2.35;;
38513;SDS011;24282;48.400;10.808;2023-08-24T12:42:03;3.65;;;2.25;;
38513;SDS011;24282;48.400;10.808;2023-08-24T12:44:29;5.93;;;2.65;;
38513;SDS011;24282;48.400;10.808;2023-08-24T12:46:54;6.55;;;2.35;;
38513;SDS011;24282;48.400;10.808;2023-08-24T12:49:20;4.05;;;2.53;;
38513;SDS011;24282;48.400;10.808;2023-08-24T12:51:46;4.15;;;2.00;;
38513;SDS011;24282;48.400;10.808;2023-08-24T12:54:12;4.43;;;2.20;;
38513;SDS011;24282;48.400;10.808;2023-08-24T12:56:41;5.00;;;2.40;;
38513;SDS011;24282;48.400;10.808;2023-08-24T12:59:07;3.17;;;1.98;;
38513;SDS011;24282;48.400;10.808;2023-08-24T13:01:33;4.85;;;2.95;;
38513;SDS011;24282;48.400;10.808;2023-08-24T13:03:59;4.78;;;2.17;;
38513;SDS011;24282;48.400;10.808;2023-08-24T13:06:25;3.38;;;1.83;;
38513;SDS011;24282;48.400;10.808;2023-08-24T13:08:54;4.70;;;2.40;;
38513;SDS011;24282;48.400;10.808;2023-08-24T13:11:20;2.33;;;2.00;;
38513;SDS011;24282;48.400;10.808;2023-08-24T13:13:47;3.65;;;2.40;;
38513;SDS011;24282;48.400;10.808;2023-08-24T13:16:13;3.97;;;2.03;;
38513;SDS011;24282;48.400;10.808;2023-08-24T13:18:40;4.68;;;2.40;;
38513;SDS011;24282;48.400;10.808;2023-08-24T13:21:07;4.28;;;2.28;;
38513;SDS011;24282;48.400;10.808;2023-08-24T13:23:32;4.20;;;2.13;;
38513;SDS011;24282;48.400;10.808;2023-08-24T13:25:59;3.88;;;2.33;;
38513;SDS011;24282;48.400;10.808;2023-08-24T13:28:25;3.25;;;2.13;;
38513;SDS011;24282;48.400;10.808;2023-08-24T13:30:51;3.67;;;2.38;;
38513;SDS011;24282;48.400;10.808;2023-08-24T13:33:17;3.85;;;2.47;;
38513;SDS011;24282;48.400;10.808;2023-08-24T13:35:44;3.92;;;2.42;;
38513;SDS011;24282;48.400;10.808;2023-08-24T13:38:10;3.17;;;2.30;;
38513;SDS011;24282;48.400;10.808;2023-08-24T13:40:36;3.75;;;1.92;;
38513;SDS011;24282;48.400;10.808;2023-08-24T13:43:02;3.22;;;1.98;;
38513;SDS011;24282;48.400;10.808;2023-08-24T13:45:28;4.65;;;2.65;;
38513;SDS011;24282;48.400;10.808;2023-08-24T13:47:56;4.28;;;2.45;;
38513;SDS011;24282;48.400;10.808;2023-08-24T13:50:22;3.55;;;2.10;;
38513;SDS011;24282;48.400;10.808;2023-08-24T13:52:48;4.00;;;2.50;;
38513;SDS011;24282;48.400;10.808;2023-08-24T13:55:15;3.47;;;1.67;;
38513;SDS011;24282;48.400;10.808;2023-08-24T13:57:42;5.13;;;2.40;;
38513;SDS011;24282;48.400;10.808;2023-08-24T14:00:08;6.75;;;2.40;;
38513;SDS011;24282;48.400;10.808;2023-08-24T14:02:37;6.50;;;2.20;;
38513;SDS011;24282;48.400;10.808;2023-08-24T14:05:03;3.42;;;2.20;;
38513;SDS011;24282;48.400;10.808;2023-08-24T14:07:34;3.13;;;2.08;;
38513;SDS011;24282;48.400;10.808;2023-08-24T14:10:00;2.92;;;1.75;;
38513;SDS011;24282;48.400;10.808;2023-08-24T14:12:26;3.17;;;1.90;;
38513;SDS011;24282;48.400;10.808;2023-08-24T14:14:52;3.55;;;2.00;;
38513;SDS011;24282;48.400;10.808;2023-08-24T14:17:18;3.50;;;2.08;;
38513;SDS011;24282;48.400;10.808;2023-08-24T14:19:43;6.30;;;2.25;;
38513;SDS011;24282;48.400;10.808;2023-08-24T14:22:09;3.45;;;2.00;;
38513;SDS011;24282;48.400;10.808;2023-08-24T14:24:35;2.15;;;1.63;;
38513;SDS011;24282;48.400;10.808;2023-08-24T14:27:01;5.28;;;2.42;;
38513;SDS011;24282;48.400;10.808;2023-08-24T14:29:26;5.05;;;2.38;;
38513;SDS011;24282;48.400;10.808;2023-08-24T14:31:52;4.47;;;2.28;;
38513;SDS011;24282;48.400;10.808;2023-08-24T14:34:18;3.15;;;1.90;;
38513;SDS011;24282;48.400;10.808;2023-08-24T14:36:43;2.20;;;1.50;;
38513;SDS011;24282;48.400;10.808;2023-08-24T14:39:09;4.13;;;1.80;;
38513;SDS011;24282;48.400;10.808;2023-08-24T14:41:35;2.88;;;1.95;;
38513;SDS011;24282;48.400;10.808;2023-08-24T14:44:01;4.43;;;1.70;;
38513;SDS011;24282;48.400;10.808;2023-08-24T14:46:26;2.78;;;2.10;;
38513;SDS011;24282;48.400;10.808;2023-08-24T14:48:52;3.35;;;2.00;;
38513;SDS011;24282;48.400;10.808;2023-08-24T14:51:18;3.38;;;2.15;;
38513;SDS011;24282;48.400;10.808;2023-08-24T14:53:44;2.30;;;1.80;;
38513;SDS011;24282;48.400;10.808;2023-08-24T14:56:10;2.70;;;1.90;;
38513;SDS011;24282;48.400;10.808;2023-08-24T14:58:35;3.85;;;2.20;;
38513;SDS011;24282;48.400;10.808;2023-08-24T15:01:01;5.95;;;2.40;;
38513;SDS011;24282;48.400;10.808;2023-08-24T15:03:27;3.30;;;2.20;;